Rivendell — WDG4613 — position and weather

sailwx.info

Track history (hours):
 
Tides and Currents Weather Stations Pressure Air Temp Water Temp Dewpoint Dewpoint Depression Visibility Wind Speed Wind Dir Waves Ship Positions

Rivendell

Owner: Passage of Time, Inc., Newport, RI. More information available from US FCC via Universal Licensing System and Coast Guard Vessel Documentation Center.

Last reported at 2017-Oct-27 09:15 UTC. Time now 2017-Dec-13 03:28 UTC.
Position N 39°23' E 002°27'.
Warning: this ship's position is 46 days out of date.

Length 25 m.

Type: Sailing vessel. MMSI: 367538390.

Date/timePositionNaut miles runAvg speedWind from/ knotsBaromVisibWave heightAir tempDewpointWater temp
2017-Oct-27 09:15N 39°23' E 002°27'2 8.7
2017-Oct-27 09:00N 39°25' E 002°29'4 8.8
2017-Oct-27 08:30N 39°28' E 002°33'5 8.9
2017-Oct-27 08:00N 39°32' E 002°37'2 3.9
2017-Oct-27 07:28N 39°34' E 002°38'0 0.0
2017-Oct-27 06:58N 39°34' E 002°38'0 0.0
2017-Oct-27 06:28N 39°34' E 002°38'0 0.0
2017-Oct-27 05:58N 39°34' E 002°38'0 0.0
2017-Oct-25 18:19N 39°34' E 002°38'0 0.0
2017-Oct-25 17:58N 39°34' E 002°38'0 0.0
2017-Oct-25 17:28N 39°34' E 002°38'0 0.0
2017-Oct-25 16:58N 39°34' E 002°38'0 0.0
2017-Oct-25 16:30N 39°34' E 002°38'0 0.0
2017-Oct-25 16:00N 39°34' E 002°38'0 0.0
2017-Oct-25 15:30N 39°34' E 002°38'0 0.0
2017-Oct-25 15:00N 39°34' E 002°38'0 0.0
2017-Oct-25 14:30N 39°34' E 002°38'0 0.0
2017-Oct-25 14:00N 39°34' E 002°38'0 0.0
2017-Oct-25 13:30N 39°34' E 002°38'0 0.0
2017-Oct-23 17:25N 39°34' E 002°38'0 0.0
2017-Oct-23 16:58N 39°34' E 002°38'0 0.0
2017-Oct-23 16:28N 39°34' E 002°38'0 0.0
2017-Oct-23 15:58N 39°34' E 002°38'0 0.0
2017-Oct-23 15:28N 39°34' E 002°38'1 2.4
2017-Oct-23 14:59N 39°34' E 002°39'0 0.0
2017-Oct-23 14:29N 39°34' E 002°39'0 0.0
2017-Oct-23 13:58N 39°34' E 002°39'0 0.0
2017-Oct-23 13:28N 39°34' E 002°39'1 2.4
2017-Oct-23 13:00N 39°33' E 002°40'4 8.2
2017-Oct-23 12:30N 39°28' E 002°41'3 5.4
2017-Oct-23 12:00N 39°30' E 002°38'1 2.1
2017-Oct-23 11:30N 39°31' E 002°38'1 2.3
2017-Oct-23 10:59N 39°31' E 002°39'0 0.7
2017-Oct-23 10:30N 39°31' E 002°39'3 5.7
2017-Oct-23 10:00N 39°34' E 002°38'0 0.5
2017-Oct-23 09:29N 39°34' E 002°38'0 0.0
2017-Oct-23 08:59N 39°34' E 002°38'0 0.0
2017-Oct-23 08:29N 39°34' E 002°38'0 0.0
2017-Oct-23 07:59N 39°34' E 002°38'0 0.0
2017-Oct-21 16:33N 39°34' E 002°38'0 0.0
2017-Oct-21 16:30N 39°34' E 002°38'0 0.0
2017-Oct-21 16:00N 39°34' E 002°38'0 0.0
2017-Oct-21 15:30N 39°34' E 002°38'0 0.0
2017-Oct-21 15:00N 39°34' E 002°38'0 0.0
2017-Oct-21 14:00N 39°34' E 002°38'0 0.0
2017-Oct-21 13:30N 39°34' E 002°38'0 0.0
2017-Oct-21 13:00N 39°34' E 002°38'0 0.0
2017-Oct-20 16:03N 39°34' E 002°38'0 0.1
2017-Oct-20 16:00N 39°34' E 002°38'0 0.0
2017-Oct-20 15:30N 39°34' E 002°38'0 0.0
2017-Oct-20 15:00N 39°34' E 002°38'0 0.0
2017-Oct-20 14:30N 39°34' E 002°38'0 0.0
2017-Oct-20 13:30N 39°34' E 002°38'0 0.0
2017-Oct-20 13:00N 39°34' E 002°38'0 0.0
2017-Oct-18 21:48N 39°34' E 002°38'0 0.0
2017-Oct-18 21:30N 39°34' E 002°38'0 0.0
2017-Oct-18 21:00N 39°34' E 002°38'0 0.0
2017-Oct-18 20:30N 39°34' E 002°38'0 0.0
2017-Oct-18 20:00N 39°34' E 002°38'0 0.0
2017-Oct-18 19:30N 39°34' E 002°38'0 0.0
2017-Oct-18 19:00N 39°34' E 002°38'0 0.0
2017-Oct-18 18:30N 39°34' E 002°38'0 0.0
2017-Oct-18 18:00N 39°34' E 002°38'0 0.0
2017-Oct-18 17:30N 39°34' E 002°38'0 0.0
2017-Oct-18 17:00N 39°34' E 002°38'0 0.0
2017-Oct-18 16:30N 39°34' E 002°38'0 0.0
2017-Oct-18 16:00N 39°34' E 002°38'0 0.0
2017-Oct-18 15:30N 39°34' E 002°38'0 0.0
2017-Oct-18 15:00N 39°34' E 002°38'0 0.0
2017-Oct-18 14:00N 39°34' E 002°38'0 0.0
2017-Oct-18 13:30N 39°34' E 002°38'0 0.0
2017-Oct-18 13:00N 39°34' E 002°38'0 0.0
2017-Oct-18 12:30N 39°34' E 002°38'0 0.0
2017-Oct-18 12:00N 39°34' E 002°38'0 0.0
2017-Oct-18 11:30N 39°34' E 002°38'0 0.0
2017-Oct-18 11:00N 39°34' E 002°38'0 0.0
2017-Oct-18 10:30N 39°34' E 002°38'0 0.0
2017-Oct-18 10:00N 39°34' E 002°38'0 0.0
2017-Oct-18 09:29N 39°34' E 002°38'  
Track history (hours):
 
Tides and Currents Weather Stations Pressure Air Temp Water Temp Dewpoint Dewpoint Depression Visibility Wind Speed Wind Dir Waves Ship Positions

Rivendell

Owner: Passage of Time, Inc., Newport, RI. More information available from US FCC via Universal Licensing System and Coast Guard Vessel Documentation Center.

Last reported at 2017-Oct-27 09:15 UTC. Time now 2017-Dec-13 03:28 UTC.
Position N 39°23' E 002°27'.
Warning: this ship's position is 46 days out of date.

Length 25 m.

Type: Sailing vessel. MMSI: 367538390.

Date/timePositionNaut miles runAvg speedWind from/ knotsBaromVisibWave heightAir tempDewpointWater temp
2017-Oct-27 09:15N 39°23' E 002°27'2 8.7
2017-Oct-27 09:00N 39°25' E 002°29'4 8.8
2017-Oct-27 08:30N 39°28' E 002°33'5 8.9
2017-Oct-27 08:00N 39°32' E 002°37'2 3.9
2017-Oct-27 07:28N 39°34' E 002°38'0 0.0
2017-Oct-27 06:58N 39°34' E 002°38'0 0.0
2017-Oct-27 06:28N 39°34' E 002°38'0 0.0
2017-Oct-27 05:58N 39°34' E 002°38'0 0.0
2017-Oct-25 18:19N 39°34' E 002°38'0 0.0
2017-Oct-25 17:58N 39°34' E 002°38'0 0.0
2017-Oct-25 17:28N 39°34' E 002°38'0 0.0
2017-Oct-25 16:58N 39°34' E 002°38'0 0.0
2017-Oct-25 16:30N 39°34' E 002°38'0 0.0
2017-Oct-25 16:00N 39°34' E 002°38'0 0.0
2017-Oct-25 15:30N 39°34' E 002°38'0 0.0
2017-Oct-25 15:00N 39°34' E 002°38'0 0.0
2017-Oct-25 14:30N 39°34' E 002°38'0 0.0
2017-Oct-25 14:00N 39°34' E 002°38'0 0.0
2017-Oct-25 13:30N 39°34' E 002°38'0 0.0
2017-Oct-23 17:25N 39°34' E 002°38'0 0.0
2017-Oct-23 16:58N 39°34' E 002°38'0 0.0
2017-Oct-23 16:28N 39°34' E 002°38'0 0.0
2017-Oct-23 15:58N 39°34' E 002°38'0 0.0
2017-Oct-23 15:28N 39°34' E 002°38'1 2.4
2017-Oct-23 14:59N 39°34' E 002°39'0 0.0
2017-Oct-23 14:29N 39°34' E 002°39'0 0.0
2017-Oct-23 13:58N 39°34' E 002°39'0 0.0
2017-Oct-23 13:28N 39°34' E 002°39'1 2.4
2017-Oct-23 13:00N 39°33' E 002°40'4 8.2
2017-Oct-23 12:30N 39°28' E 002°41'3 5.4
2017-Oct-23 12:00N 39°30' E 002°38'1 2.1
2017-Oct-23 11:30N 39°31' E 002°38'1 2.3
2017-Oct-23 10:59N 39°31' E 002°39'0 0.7
2017-Oct-23 10:30N 39°31' E 002°39'3 5.7
2017-Oct-23 10:00N 39°34' E 002°38'0 0.5
2017-Oct-23 09:29N 39°34' E 002°38'0 0.0
2017-Oct-23 08:59N 39°34' E 002°38'0 0.0
2017-Oct-23 08:29N 39°34' E 002°38'0 0.0
2017-Oct-23 07:59N 39°34' E 002°38'0 0.0
2017-Oct-21 16:33N 39°34' E 002°38'0 0.0
2017-Oct-21 16:30N 39°34' E 002°38'0 0.0
2017-Oct-21 16:00N 39°34' E 002°38'0 0.0
2017-Oct-21 15:30N 39°34' E 002°38'0 0.0
2017-Oct-21 15:00N 39°34' E 002°38'0 0.0
2017-Oct-21 14:00N 39°34' E 002°38'0 0.0
2017-Oct-21 13:30N 39°34' E 002°38'0 0.0
2017-Oct-21 13:00N 39°34' E 002°38'0 0.0
2017-Oct-20 16:03N 39°34' E 002°38'0 0.1
2017-Oct-20 16:00N 39°34' E 002°38'0 0.0
2017-Oct-20 15:30N 39°34' E 002°38'0 0.0
2017-Oct-20 15:00N 39°34' E 002°38'0 0.0
2017-Oct-20 14:30N 39°34' E 002°38'0 0.0
2017-Oct-20 13:30N 39°34' E 002°38'0 0.0
2017-Oct-20 13:00N 39°34' E 002°38'0 0.0
2017-Oct-18 21:48N 39°34' E 002°38'0 0.0
2017-Oct-18 21:30N 39°34' E 002°38'0 0.0
2017-Oct-18 21:00N 39°34' E 002°38'0 0.0
2017-Oct-18 20:30N 39°34' E 002°38'0 0.0
2017-Oct-18 20:00N 39°34' E 002°38'0 0.0
2017-Oct-18 19:30N 39°34' E 002°38'0 0.0
2017-Oct-18 19:00N 39°34' E 002°38'0 0.0
2017-Oct-18 18:30N 39°34' E 002°38'0 0.0
2017-Oct-18 18:00N 39°34' E 002°38'0 0.0
2017-Oct-18 17:30N 39°34' E 002°38'0 0.0
2017-Oct-18 17:00N 39°34' E 002°38'0 0.0
2017-Oct-18 16:30N 39°34' E 002°38'0 0.0
2017-Oct-18 16:00N 39°34' E 002°38'0 0.0
2017-Oct-18 15:30N 39°34' E 002°38'0 0.0
2017-Oct-18 15:00N 39°34' E 002°38'0 0.0
2017-Oct-18 14:00N 39°34' E 002°38'0 0.0
2017-Oct-18 13:30N 39°34' E 002°38'0 0.0
2017-Oct-18 13:00N 39°34' E 002°38'0 0.0
2017-Oct-18 12:30N 39°34' E 002°38'0 0.0
2017-Oct-18 12:00N 39°34' E 002°38'0 0.0
2017-Oct-18 11:30N 39°34' E 002°38'0 0.0
2017-Oct-18 11:00N 39°34' E 002°38'0 0.0
2017-Oct-18 10:30N 39°34' E 002°38'0 0.0
2017-Oct-18 10:00N 39°34' E 002°38'0 0.0
2017-Oct-18 09:29N 39°34' E 002°38'  

Dump ship's entire track history